Time;durP1;ratioP1;P1;durP2;ratioP2;P2;SDS_P1;SDS_P2;PMS_P1;PMS_P2;Temp;Humidity;BMP_temperature;BMP_pressure;BME280_temperature;BME280_humidity;BME280_pressure;Samples;Min_cycle;Max_cycle;Signal;HPM_P1;HPM_P2
2022/04/12 00:00:38;;;;;;;;;;;11.40;99.90;;;;;;4939587;28;20001;-82
2022/04/12 00:03:04;;;;;;;;;;;11.40;99.90;;;;;;4951361;29;19937;-82
2022/04/12 00:05:29;;;;;;;;;;;11.40;99.90;;;;;;4953130;29;19914;-82
2022/04/12 00:07:55;;;;;;;;;;;11.40;99.90;;;;;;4965693;29;19915;-82
2022/04/12 00:10:21;;;;;;;;;;;11.40;99.90;;;;;;4943268;29;19914;-82
2022/04/12 00:12:47;;;;;;;;;;;11.40;99.90;;;;;;4958649;29;19923;-82
2022/04/12 00:15:13;;;;;;;;;;;11.60;99.90;;;;;;4947439;28;19919;-83
2022/04/12 00:20:26;;;;;;;;;;;11.60;99.90;;;;;;4943726;29;20004;-82
2022/04/12 00:22:55;;;;;;;;;;;11.60;99.90;;;;;;4956682;29;19922;-83
2022/04/12 00:25:22;;;;;;;;;;;11.50;99.90;;;;;;4954313;29;19982;-82
2022/04/12 00:27:48;;;;;;;;;;;11.40;99.90;;;;;;4939960;29;19936;-82
2022/04/12 00:30:14;;;;;;;;;;;11.30;99.90;;;;;;4955616;29;20372;-82
2022/04/12 00:32:39;;;;;;;;;;;11.30;99.90;;;;;;4950853;29;20005;-82
2022/04/12 00:35:05;;;;;;;;;;;11.10;99.90;;;;;;4949660;29;19954;-82
2022/04/12 00:37:31;;;;;;;;;;;11.00;99.90;;;;;;4956035;29;20046;-81
2022/04/12 00:39:57;;;;;;;;;;;10.90;99.90;;;;;;4935885;29;19928;-82
2022/04/12 00:42:22;;;;;;;;;;;10.90;99.90;;;;;;4953123;29;20238;-82
2022/04/12 00:44:48;;;;;;;;;;;10.80;99.90;;;;;;4956990;29;19918;-82
2022/04/12 00:47:14;;;;;;;;;;;10.80;99.90;;;;;;4937135;29;19921;-83
2022/04/12 00:49:40;;;;;;;;;;;10.70;99.90;;;;;;4937552;29;19914;-82
2022/04/12 00:52:06;;;;;;;;;;;10.70;99.90;;;;;;4950901;29;20262;-82
2022/04/12 00:54:33;;;;;;;;;;;10.70;99.90;;;;;;4950051;29;19915;-82
2022/04/12 00:56:59;;;;;;;;;;;10.70;99.90;;;;;;4937947;29;19915;-82
2022/04/12 00:59:24;;;;;;;;;;;10.70;99.90;;;;;;4954704;29;20356;-83
2022/04/12 01:01:50;;;;;;;;;;;10.70;99.90;;;;;;4953461;29;19961;-81
2022/04/12 01:04:16;;;;;;;;;;;10.70;99.90;;;;;;4954378;28;19918;-83
2022/04/12 01:06:42;;;;;;;;;;;10.60;99.90;;;;;;4965806;28;19926;-82
2022/04/12 01:09:09;;;;;;;;;;;10.50;99.90;;;;;;4951426;29;19993;-82
2022/04/12 01:11:35;;;;;;;;;;;10.50;99.90;;;;;;4957338;29;19962;-82
2022/04/12 01:14:01;;;;;;;;;;;10.50;99.90;;;;;;4955948;28;19915;-82
2022/04/12 01:16:27;;;;;;;;;;;10.40;99.90;;;;;;4966085;28;19914;-82
2022/04/12 01:18:52;;;;;;;;;;;10.40;99.90;;;;;;4969461;29;19910;-81
2022/04/12 01:21:18;;;;;;;;;;;10.40;99.90;;;;;;4958158;29;19942;-82
2022/04/12 01:24:04;;;;;;;;;;;10.40;99.90;;;;;;4972581;28;19956;-82
2022/04/12 01:26:30;;;;;;;;;;;10.40;99.90;;;;;;4963720;29;19926;-82
2022/04/12 01:28:56;;;;;;;;;;;10.30;99.90;;;;;;4948357;29;19918;-82
2022/04/12 01:31:23;;;;;;;;;;;10.30;99.90;;;;;;4947495;29;20001;-82
2022/04/12 01:33:49;;;;;;;;;;;10.20;99.90;;;;;;4958170;29;19922;-82
2022/04/12 01:36:14;;;;;;;;;;;10.20;99.90;;;;;;4956522;28;20017;-82
2022/04/12 01:38:40;;;;;;;;;;;10.10;99.90;;;;;;4959444;29;19978;-83
2022/04/12 01:41:05;;;;;;;;;;;10.10;99.90;;;;;;4956090;29;20353;-82
2022/04/12 01:43:31;;;;;;;;;;;10.00;99.90;;;;;;4951631;29;19922;-82
2022/04/12 01:45:57;;;;;;;;;;;9.90;99.90;;;;;;4952524;29;19929;-82
2022/04/12 01:48:24;;;;;;;;;;;9.80;99.90;;;;;;4954338;29;19957;-81
2022/04/12 01:50:49;;;;;;;;;;;9.70;99.90;;;;;;4953541;29;20381;-82
2022/04/12 01:53:34;;;;;;;;;;;9.70;99.90;;;;;;4951527;29;19915;-82
2022/04/12 01:55:59;;;;;;;;;;;9.70;99.90;;;;;;4957169;29;19954;-81
2022/04/12 01:58:25;;;;;;;;;;;9.80;99.90;;;;;;4954599;29;19927;-82
2022/04/12 02:00:50;;;;;;;;;;;9.90;99.90;;;;;;4933144;29;19933;-81
2022/04/12 02:03:16;;;;;;;;;;;9.90;99.90;;;;;;4950397;29;19974;-81
2022/04/12 02:05:41;;;;;;;;;;;9.90;99.90;;;;;;4949391;29;19919;-81
2022/04/12 02:08:08;;;;;;;;;;;9.90;99.90;;;;;;4945489;29;19915;-80
2022/04/12 02:10:34;;;;;;;;;;;9.90;99.90;;;;;;4949522;29;19915;-79
2022/04/12 02:12:59;;;;;;;;;;;9.80;99.90;;;;;;4948474;28;19925;-82
2022/04/12 02:15:25;;;;;;;;;;;9.80;99.90;;;;;;4952743;29;20013;-82
2022/04/12 02:17:50;;;;;;;;;;;9.80;99.90;;;;;;4943798;29;20002;-82
2022/04/12 02:20:16;;;;;;;;;;;9.70;99.90;;;;;;4926235;29;19914;-82
2022/04/12 02:22:45;;;;;;;;;;;9.50;99.90;;;;;;4934176;29;19935;-82
2022/04/12 02:25:10;;;;;;;;;;;9.50;99.90;;;;;;4932243;29;19946;-83
2022/04/12 02:27:37;;;;;;;;;;;9.50;99.90;;;;;;4938004;28;19980;-82
2022/04/12 02:30:04;;;;;;;;;;;9.50;99.90;;;;;;4954814;29;19918;-81
2022/04/12 02:32:32;;;;;;;;;;;9.50;99.90;;;;;;4937087;29;19918;-82
2022/04/12 02:35:00;;;;;;;;;;;9.60;99.90;;;;;;4955686;29;20771;-82
2022/04/12 02:37:29;;;;;;;;;;;9.60;99.90;;;;;;4917519;29;19950;-81
2022/04/12 02:39:54;;;;;;;;;;;9.70;99.90;;;;;;4956192;29;19965;-81
2022/04/12 02:42:20;;;;;;;;;;;9.80;99.90;;;;;;4955851;29;19914;-82
2022/04/12 02:44:45;;;;;;;;;;;9.80;99.90;;;;;;4975503;28;19949;-82
2022/04/12 02:47:12;;;;;;;;;;;9.80;99.90;;;;;;4979443;28;19902;-82
2022/04/12 02:49:37;;;;;;;;;;;9.80;99.90;;;;;;4975599;28;19917;-82
2022/04/12 02:52:03;;;;;;;;;;;9.80;99.90;;;;;;4959876;29;19922;-82
2022/04/12 02:54:28;;;;;;;;;;;9.90;99.90;;;;;;4964869;29;20364;-81
2022/04/12 02:56:54;;;;;;;;;;;9.90;99.90;;;;;;4963937;29;20173;-81
2022/04/12 02:59:19;;;;;;;;;;;10.00;99.90;;;;;;4958014;29;19993;-82
2022/04/12 03:01:45;;;;;;;;;;;10.00;99.90;;;;;;4955976;29;19921;-81
2022/04/12 03:04:11;;;;;;;;;;;10.10;99.90;;;;;;4940094;29;19938;-80
2022/04/12 03:06:36;;;;;;;;;;;10.00;99.90;;;;;;4957428;29;19915;-83
2022/04/12 03:09:02;;;;;;;;;;;10.10;99.90;;;;;;4947032;29;19918;-81
2022/04/12 03:11:28;;;;;;;;;;;10.10;99.90;;;;;;4951720;29;19927;-82
2022/04/12 03:13:53;;;;;;;;;;;10.10;99.90;;;;;;4954205;29;20385;-82
2022/04/12 03:16:19;;;;;;;;;;;10.20;99.90;;;;;;4937823;29;19951;-81
2022/04/12 03:18:45;;;;;;;;;;;10.30;99.90;;;;;;4953321;28;19922;-82
2022/04/12 03:21:10;;;;;;;;;;;10.30;99.90;;;;;;4957903;29;19917;-80
2022/04/12 03:23:36;;;;;;;;;;;10.30;99.90;;;;;;4955245;29;19926;-82
2022/04/12 03:26:02;;;;;;;;;;;10.30;99.90;;;;;;4951237;29;20022;-82
2022/04/12 03:28:28;;;;;;;;;;;10.20;99.90;;;;;;4954197;29;19946;-83
2022/04/12 03:30:53;;;;;;;;;;;10.20;99.90;;;;;;4949713;29;19962;-82
2022/04/12 03:33:19;;;;;;;;;;;10.20;99.90;;;;;;4948975;28;19914;-82
2022/04/12 03:35:44;;;;;;;;;;;10.30;99.90;;;;;;4943603;29;19921;-83
2022/04/12 03:38:10;;;;;;;;;;;10.20;99.90;;;;;;4966608;29;19914;-81
2022/04/12 03:40:35;;;;;;;;;;;10.30;99.90;;;;;;4959236;29;19914;-82
2022/04/12 03:43:04;;;;;;;;;;;10.30;99.90;;;;;;4970624;29;20125;-82
2022/04/12 03:45:30;;;;;;;;;;;10.40;99.90;;;;;;4949589;29;19942;-82
2022/04/12 03:47:56;;;;;;;;;;;10.40;99.90;;;;;;4942774;29;19919;-82
2022/04/12 03:50:22;;;;;;;;;;;10.50;99.90;;;;;;4961071;29;19946;-81
2022/04/12 03:52:48;;;;;;;;;;;10.50;99.90;;;;;;4959123;29;19914;-81
2022/04/12 03:55:13;;;;;;;;;;;10.70;99.90;;;;;;4955952;29;19921;-82
2022/04/12 03:57:39;;;;;;;;;;;10.70;99.90;;;;;;4941381;29;19914;-81
2022/04/12 04:00:08;;;;;;;;;;;10.80;99.90;;;;;;4949773;29;19941;-81
2022/04/12 04:02:36;;;;;;;;;;;10.80;99.90;;;;;;4956044;29;19970;-81
2022/04/12 04:05:02;;;;;;;;;;;10.70;99.90;;;;;;4943255;29;19925;-81
2022/04/12 04:07:28;;;;;;;;;;;10.80;99.90;;;;;;4934069;29;19914;-81
2022/04/12 04:09:54;;;;;;;;;;;11.00;99.90;;;;;;4955946;29;19919;-82
2022/04/12 04:12:20;;;;;;;;;;;10.90;99.90;;;;;;4949348;29;20272;-81
2022/04/12 04:14:46;;;;;;;;;;;10.90;99.90;;;;;;4933876;29;19918;-82
2022/04/12 04:17:12;;;;;;;;;;;10.80;99.90;;;;;;4956755;29;19915;-81
2022/04/12 04:19:38;;;;;;;;;;;10.70;99.90;;;;;;4942505;28;19921;-82
2022/04/12 04:22:04;;;;;;;;;;;10.80;99.90;;;;;;4943735;29;19923;-81
2022/04/12 04:24:29;;;;;;;;;;;10.60;99.90;;;;;;4958137;29;19926;-82
2022/04/12 04:26:55;;;;;;;;;;;10.60;99.90;;;;;;4957077;29;19921;-82
2022/04/12 04:29:27;;;;;;;;;;;10.50;99.90;;;;;;4958384;29;19922;-82
2022/04/12 04:31:53;;;;;;;;;;;10.40;99.90;;;;;;4963256;28;19974;-81
2022/04/12 04:34:19;;;;;;;;;;;10.30;99.90;;;;;;4940746;29;19915;-81
2022/04/12 04:36:45;;;;;;;;;;;10.30;99.90;;;;;;4935130;29;19965;-82
2022/04/12 04:39:10;;;;;;;;;;;10.20;99.90;;;;;;4953861;29;19961;-84
2022/04/12 04:41:37;;;;;;;;;;;10.20;99.90;;;;;;4961306;29;20264;-85
2022/04/12 04:44:03;;;;;;;;;;;10.10;99.90;;;;;;4956283;29;19922;-85
2022/04/12 04:46:29;;;;;;;;;;;10.10;99.90;;;;;;4957819;29;19945;-84
2022/04/12 04:48:54;;;;;;;;;;;10.10;99.90;;;;;;4958328;28;19914;-85
2022/04/12 04:51:20;;;;;;;;;;;10.00;99.90;;;;;;4937544;28;20032;-85
2022/04/12 04:53:49;;;;;;;;;;;10.00;99.90;;;;;;4953612;29;19915;-85
2022/04/12 04:56:16;;;;;;;;;;;9.90;99.90;;;;;;4959407;29;19925;-85
2022/04/12 04:58:41;;;;;;;;;;;10.10;99.90;;;;;;4960376;29;19915;-85
2022/04/12 05:01:07;;;;;;;;;;;10.20;99.90;;;;;;4963613;29;19962;-84
2022/04/12 05:03:34;;;;;;;;;;;10.10;99.90;;;;;;4963840;29;19977;-85
2022/04/12 05:06:00;;;;;;;;;;;10.20;99.90;;;;;;4956511;29;19914;-85
2022/04/12 05:08:25;;;;;;;;;;;10.30;99.90;;;;;;4966591;29;19915;-86
2022/04/12 05:10:51;;;;;;;;;;;10.40;99.90;;;;;;4977731;28;19930;-84
2022/04/12 05:13:20;;;;;;;;;;;10.50;99.90;;;;;;4974383;28;19918;-85
2022/04/12 05:15:45;;;;;;;;;;;10.60;99.90;;;;;;4961915;28;19914;-85
2022/04/12 05:18:11;;;;;;;;;;;10.60;99.90;;;;;;4974941;28;20391;-84
2022/04/12 05:20:37;;;;;;;;;;;10.50;99.90;;;;;;4960759;29;19915;-85
2022/04/12 05:23:05;;;;;;;;;;;10.50;99.90;;;;;;4958368;29;19923;-85
2022/04/12 05:25:31;;;;;;;;;;;10.50;99.90;;;;;;4955370;29;19914;-85
2022/04/12 05:27:57;;;;;;;;;;;10.40;99.90;;;;;;4963226;28;19913;-85
2022/04/12 05:30:22;;;;;;;;;;;10.40;99.90;;;;;;4939711;29;19922;-84
2022/04/12 05:32:52;;;;;;;;;;;10.50;99.90;;;;;;4950291;29;19918;-85
2022/04/12 05:35:17;;;;;;;;;;;10.50;99.90;;;;;;4945399;29;19929;-85
2022/04/12 05:37:43;;;;;;;;;;;10.50;99.90;;;;;;4924202;29;20418;-85
2022/04/12 05:40:09;;;;;;;;;;;10.60;99.90;;;;;;4939166;29;19915;-84
2022/04/12 05:42:35;;;;;;;;;;;10.50;99.90;;;;;;4949930;29;20368;-84
2022/04/12 05:45:01;;;;;;;;;;;10.50;99.90;;;;;;4936561;29;20019;-85
2022/04/12 05:47:27;;;;;;;;;;;10.40;99.90;;;;;;4938953;29;19942;-85
2022/04/12 05:49:53;;;;;;;;;;;10.40;99.90;;;;;;4920778;29;20010;-83
2022/04/12 05:52:19;;;;;;;;;;;10.30;99.90;;;;;;4929253;29;19914;-84
2022/04/12 05:54:45;;;;;;;;;;;10.30;99.90;;;;;;4944747;29;20005;-85
2022/04/12 05:57:10;;;;;;;;;;;10.30;99.90;;;;;;4955701;29;19903;-85
2022/04/12 05:59:36;;;;;;;;;;;10.30;99.90;;;;;;4943857;29;19922;-85
2022/04/12 06:02:02;;;;;;;;;;;10.40;99.90;;;;;;4933387;29;19979;-85
2022/04/12 06:04:30;;;;;;;;;;;10.40;99.90;;;;;;4943023;29;19919;-85
2022/04/12 06:06:56;;;;;;;;;;;10.40;99.90;;;;;;4940440;29;20020;-84
2022/04/12 06:09:21;;;;;;;;;;;10.30;99.90;;;;;;4950895;29;19914;-83
2022/04/12 06:11:47;;;;;;;;;;;10.30;99.90;;;;;;4924450;29;19914;-84
2022/04/12 06:14:13;;;;;;;;;;;10.30;99.90;;;;;;4941141;29;20030;-85
2022/04/12 06:16:38;;;;;;;;;;;10.30;99.90;;;;;;4936652;29;19923;-86
2022/04/12 06:19:07;;;;;;;;;;;10.40;99.90;;;;;;4937361;29;19925;-84
2022/04/12 06:21:32;;;;;;;;;;;10.40;99.90;;;;;;4945754;29;19915;-85
2022/04/12 06:23:58;;;;;;;;;;;10.50;99.90;;;;;;4933142;29;20412;-86
2022/04/12 06:26:24;;;;;;;;;;;10.40;99.90;;;;;;4922571;29;19915;-86
2022/04/12 06:28:49;;;;;;;;;;;10.40;99.90;;;;;;4941921;29;19915;-86
2022/04/12 06:31:15;;;;;;;;;;;10.40;99.90;;;;;;4935043;29;19926;-85
2022/04/12 06:33:40;;;;;;;;;;;10.40;99.90;;;;;;4922066;29;19922;-85
2022/04/12 06:36:06;;;;;;;;;;;10.40;99.90;;;;;;4945554;29;19922;-85
2022/04/12 06:38:32;;;;;;;;;;;10.50;99.90;;;;;;4943986;29;19926;-84
2022/04/12 06:40:58;;;;;;;;;;;10.40;99.90;;;;;;4917330;29;19914;-85
2022/04/12 06:43:25;;;;;;;;;;;10.40;99.90;;;;;;4932146;29;19919;-85
2022/04/12 06:45:51;;;;;;;;;;;10.40;99.90;;;;;;4928709;29;20397;-86
2022/04/12 06:48:17;;;;;;;;;;;10.40;99.90;;;;;;4930828;29;19915;-85
2022/04/12 06:50:42;;;;;;;;;;;10.40;99.90;;;;;;4917437;29;19918;-87
2022/04/12 06:53:08;;;;;;;;;;;10.50;99.90;;;;;;4907695;29;19943;-87
2022/04/12 06:55:33;;;;;;;;;;;10.70;99.90;;;;;;4945449;29;20421;-85
2022/04/12 06:57:59;;;;;;;;;;;10.90;99.90;;;;;;4925932;29;19922;-85
2022/04/12 07:00:28;;;;;;;;;;;10.90;99.90;;;;;;4929269;29;19943;-86
2022/04/12 07:02:54;;;;;;;;;;;10.90;99.90;;;;;;4921357;29;20010;-85
2022/04/12 07:05:19;;;;;;;;;;;11.00;99.90;;;;;;4923167;29;19926;-84
2022/04/12 07:07:45;;;;;;;;;;;11.10;99.90;;;;;;4933670;29;20289;-85
2022/04/12 07:10:12;;;;;;;;;;;11.20;99.90;;;;;;4935015;29;20038;-85
2022/04/12 07:12:38;;;;;;;;;;;11.20;99.90;;;;;;4930075;29;19975;-84
2022/04/12 07:15:04;;;;;;;;;;;11.30;99.90;;;;;;4948533;29;20054;-86
2022/04/12 07:17:30;;;;;;;;;;;11.40;99.90;;;;;;4943242;29;19919;-84
2022/04/12 07:19:55;;;;;;;;;;;11.40;99.90;;;;;;4918243;29;20266;-85
2022/04/12 07:22:24;;;;;;;;;;;11.50;99.90;;;;;;4934315;29;20250;-85
2022/04/12 07:24:50;;;;;;;;;;;11.60;99.90;;;;;;4942859;29;20061;-85
2022/04/12 07:27:15;;;;;;;;;;;11.70;99.90;;;;;;4949217;29;20002;-85
2022/04/12 07:29:41;;;;;;;;;;;11.70;99.90;;;;;;4938219;29;19915;-85
2022/04/12 07:32:11;;;;;;;;;;;11.70;99.90;;;;;;4925467;29;20359;-85
2022/04/12 07:34:36;;;;;;;;;;;11.70;99.90;;;;;;4940765;29;19918;-84
2022/04/12 07:37:02;;;;;;;;;;;11.70;99.90;;;;;;4938229;29;19907;-84
2022/04/12 07:39:28;;;;;;;;;;;11.80;99.90;;;;;;4932842;29;19923;-86
2022/04/12 07:41:54;;;;;;;;;;;11.80;99.90;;;;;;4947439;28;19938;-85
2022/04/12 07:44:20;;;;;;;;;;;11.90;99.90;;;;;;4941797;29;19925;-84
2022/04/12 07:46:46;;;;;;;;;;;12.00;99.90;;;;;;4952183;29;19918;-83
2022/04/12 07:49:12;;;;;;;;;;;11.90;99.90;;;;;;4948321;29;19943;-84
2022/04/12 07:51:38;;;;;;;;;;;12.10;99.90;;;;;;4951362;28;19919;-85
2022/04/12 07:54:04;;;;;;;;;;;12.00;99.90;;;;;;4953438;28;19921;-84
2022/04/12 07:56:30;;;;;;;;;;;12.10;99.90;;;;;;4949896;29;19907;-83
2022/04/12 07:58:56;;;;;;;;;;;12.10;99.90;;;;;;4932494;29;19939;-84
2022/04/12 08:01:21;;;;;;;;;;;12.10;99.90;;;;;;4925826;29;19914;-85
2022/04/12 08:03:47;;;;;;;;;;;12.20;99.90;;;;;;4942555;29;19941;-84
2022/04/12 08:06:13;;;;;;;;;;;12.10;99.90;;;;;;4942468;29;20242;-84
2022/04/12 08:08:39;;;;;;;;;;;12.20;99.90;;;;;;4944125;29;20018;-84
2022/04/12 08:11:04;;;;;;;;;;;12.20;99.90;;;;;;4943524;29;20199;-84
2022/04/12 08:13:30;;;;;;;;;;;12.40;99.90;;;;;;4948490;29;19985;-85
2022/04/12 08:15:56;;;;;;;;;;;12.40;99.90;;;;;;4924453;29;19963;-84
2022/04/12 08:18:22;;;;;;;;;;;12.50;99.90;;;;;;4924585;29;20317;-85
2022/04/12 08:20:49;;;;;;;;;;;12.50;99.90;;;;;;4923361;29;19998;-85
2022/04/12 08:23:20;;;;;;;;;;;12.50;99.90;;;;;;4944214;29;19930;-83
2022/04/12 08:25:45;;;;;;;;;;;12.60;99.90;;;;;;4960777;29;19957;-86
2022/04/12 08:28:11;;;;;;;;;;;12.70;99.90;;;;;;4956179;29;20303;-84
2022/04/12 08:30:37;;;;;;;;;;;12.80;99.90;;;;;;4944866;29;19938;-85
2022/04/12 08:33:03;;;;;;;;;;;13.00;99.90;;;;;;4952758;29;19983;-85
2022/04/12 08:35:35;;;;;;;;;;;13.20;99.90;;;;;;4955768;29;19946;-86
2022/04/12 08:38:00;;;;;;;;;;;13.40;99.90;;;;;;4937439;29;20404;-85
2022/04/12 08:40:26;;;;;;;;;;;13.50;99.90;;;;;;4956851;29;19954;-86
2022/04/12 08:42:53;;;;;;;;;;;13.50;99.90;;;;;;4956493;29;19923;-83
2022/04/12 08:45:19;;;;;;;;;;;13.60;99.90;;;;;;4939451;29;19919;-84
2022/04/12 08:47:44;;;;;;;;;;;13.80;99.90;;;;;;4950708;29;19957;-85
2022/04/12 08:50:11;;;;;;;;;;;14.10;99.90;;;;;;4952014;29;19927;-84
2022/04/12 08:52:37;;;;;;;;;;;14.20;99.90;;;;;;4948124;29;19946;-83
2022/04/12 08:55:03;;;;;;;;;;;14.20;99.90;;;;;;4952297;29;19915;-84
2022/04/12 08:57:29;;;;;;;;;;;14.20;99.90;;;;;;4938047;29;19919;-82
2022/04/12 08:59:54;;;;;;;;;;;14.40;99.90;;;;;;4944446;29;19958;-83
2022/04/12 09:02:20;;;;;;;;;;;14.50;99.90;;;;;;4940756;29;19922;-83
2022/04/12 09:04:46;;;;;;;;;;;14.40;99.90;;;;;;4956106;29;20218;-83
2022/04/12 09:07:11;;;;;;;;;;;14.40;99.90;;;;;;4956906;29;19914;-83
2022/04/12 09:09:38;;;;;;;;;;;14.60;99.90;;;;;;4941071;29;20399;-83
2022/04/12 09:12:06;;;;;;;;;;;14.70;99.90;;;;;;4938305;29;19918;-83
2022/04/12 09:14:39;;;;;;;;;;;14.80;99.90;;;;;;4944523;29;19922;-84
2022/04/12 09:17:17;;;;;;;;;;;14.90;99.90;;;;;;4959249;29;19969;-83
2022/04/12 09:19:47;;;;;;;;;;;14.90;99.90;;;;;;4946315;29;19978;-82
2022/04/12 09:22:18;;;;;;;;;;;14.80;99.90;;;;;;4953905;29;19925;-83
2022/04/12 09:24:44;;;;;;;;;;;14.90;99.90;;;;;;4952758;29;20281;-82
2022/04/12 09:27:13;;;;;;;;;;;14.90;99.90;;;;;;4957207;29;20028;-82
2022/04/12 09:29:46;;;;;;;;;;;14.90;99.90;;;;;;4938125;29;19989;-82
2022/04/12 09:32:15;;;;;;;;;;;14.90;99.90;;;;;;4933340;29;19918;-81
2022/04/12 09:34:44;;;;;;;;;;;15.00;99.90;;;;;;4951963;29;20391;-83
2022/04/12 09:37:36;;;;;;;;;;;14.90;99.90;;;;;;4953369;29;19915;-83
2022/04/12 09:40:02;;;;;;;;;;;14.60;99.90;;;;;;4943081;28;20003;-82
2022/04/12 09:42:48;;;;;;;;;;;14.40;99.90;;;;;;4949329;28;19962;-83
2022/04/12 09:45:23;;;;;;;;;;;14.30;99.90;;;;;;4950341;29;19962;-82
2022/04/12 09:47:50;;;;;;;;;;;14.20;99.90;;;;;;4947901;29;19930;-80
2022/04/12 09:50:15;;;;;;;;;;;14.40;99.90;;;;;;4954621;28;19965;-82
2022/04/12 09:53:01;;;;;;;;;;;14.30;99.90;;;;;;4956834;28;20013;-83
2022/04/12 09:55:37;;;;;;;;;;;14.30;99.90;;;;;;4942977;29;19915;-83
2022/04/12 09:58:03;;;;;;;;;;;14.40;99.90;;;;;;4936899;29;20250;-81
2022/04/12 10:00:32;;;;;;;;;;;14.40;99.90;;;;;;4952226;29;19974;-83
2022/04/12 10:03:08;;;;;;;;;;;14.50;99.90;;;;;;4957497;29;19910;-83
2022/04/12 10:05:34;;;;;;;;;;;14.50;99.90;;;;;;4968153;29;19907;-83
2022/04/12 10:08:00;;;;;;;;;;;14.60;99.90;;;;;;4966260;29;20435;-82
2022/04/12 10:10:26;;;;;;;;;;;14.60;99.90;;;;;;4965133;29;19985;-83
2022/04/12 10:12:52;;;;;;;;;;;14.70;99.90;;;;;;4936532;29;20253;-83
2022/04/12 10:15:18;;;;;;;;;;;14.60;99.90;;;;;;4958111;29;19922;-83
2022/04/12 10:17:44;;;;;;;;;;;14.40;99.90;;;;;;4957580;29;19993;-83
2022/04/12 10:20:10;;;;;;;;;;;14.40;99.90;;;;;;4959562;29;19902;-84
2022/04/12 10:22:36;;;;;;;;;;;14.40;99.90;;;;;;4946365;29;19957;-84
2022/04/12 10:25:02;;;;;;;;;;;14.40;99.90;;;;;;4962526;29;20340;-83
2022/04/12 10:27:28;;;;;;;;;;;14.40;99.90;;;;;;4941980;29;19917;-83
2022/04/12 10:30:12;;;;;;;;;;;14.30;99.90;;;;;;4956457;29;19954;-83
2022/04/12 10:32:56;;;;;;;;;;;14.20;99.90;;;;;;4956033;29;19914;-83
2022/04/12 10:35:22;;;;;;;;;;;14.30;99.90;;;;;;4954052;29;19974;-82
2022/04/12 10:37:48;;;;;;;;;;;14.20;99.90;;;;;;4959358;29;19946;-82
2022/04/12 10:40:14;;;;;;;;;;;14.10;99.90;;;;;;4947954;29;20392;-81
2022/04/12 10:42:40;;;;;;;;;;;14.20;99.90;;;;;;4955423;29;19919;-82
2022/04/12 10:45:06;;;;;;;;;;;14.30;99.90;;;;;;4951339;28;20348;-83
2022/04/12 10:47:36;;;;;;;;;;;14.40;99.90;;;;;;4935976;29;19926;-83
2022/04/12 10:50:05;;;;;;;;;;;14.40;99.90;;;;;;4957278;29;19962;-83
2022/04/12 10:52:33;;;;;;;;;;;14.30;99.90;;;;;;4950485;29;19915;-82
2022/04/12 10:54:59;;;;;;;;;;;14.30;99.90;;;;;;4936730;29;19915;-82
2022/04/12 10:57:26;;;;;;;;;;;14.30;99.90;;;;;;4960633;29;20005;-83
2022/04/12 10:59:53;;;;;;;;;;;14.40;99.90;;;;;;4972622;29;19993;-82
2022/04/12 11:02:19;;;;;;;;;;;14.60;99.90;;;;;;4963376;29;20073;-82
2022/04/12 11:04:44;;;;;;;;;;;14.80;99.90;;;;;;4947987;29;19965;-81
2022/04/12 11:07:26;;;;;;;;;;;14.70;99.90;;;;;;4951386;29;19918;-83
2022/04/12 11:10:11;;;;;;;;;;;14.70;99.90;;;;;;4948286;29;19950;-81
2022/04/12 11:12:43;;;;;;;;;;;14.60;99.90;;;;;;4937855;29;20222;-82
2022/04/12 11:15:21;;;;;;;;;;;14.70;99.90;;;;;;4925099;29;19910;-83
2022/04/12 11:17:47;;;;;;;;;;;14.70;99.90;;;;;;4954793;29;19918;-81
2022/04/12 11:20:22;;;;;;;;;;;14.70;99.90;;;;;;4938409;29;19925;-82
2022/04/12 11:22:57;;;;;;;;;;;14.90;99.90;;;;;;4949168;29;19937;-81
2022/04/12 11:25:23;;;;;;;;;;;15.00;99.90;;;;;;4922805;29;19919;-82
2022/04/12 11:27:58;;;;;;;;;;;15.10;99.90;;;;;;4940115;29;19970;-83
2022/04/12 11:30:25;;;;;;;;;;;15.00;99.90;;;;;;4958711;29;20300;-82
2022/04/12 11:32:53;;;;;;;;;;;15.10;99.90;;;;;;4942461;28;19937;-83
2022/04/12 11:35:19;;;;;;;;;;;15.30;99.90;;;;;;4939283;29;19915;-83
2022/04/12 11:37:45;;;;;;;;;;;15.60;99.90;;;;;;4939756;29;19919;-83
2022/04/12 11:40:11;;;;;;;;;;;15.70;99.90;;;;;;4937810;29;19969;-83
2022/04/12 11:42:36;;;;;;;;;;;15.80;99.90;;;;;;4928427;29;19970;-83
2022/04/12 11:45:02;;;;;;;;;;;15.80;99.90;;;;;;4952950;29;19989;-83
2022/04/12 11:47:28;;;;;;;;;;;16.10;99.90;;;;;;4959201;29;20694;-82
2022/04/12 11:49:54;;;;;;;;;;;16.20;99.90;;;;;;4955112;29;19962;-81
2022/04/12 11:52:19;;;;;;;;;;;16.30;99.90;;;;;;4937466;29;19919;-82
2022/04/12 11:54:47;;;;;;;;;;;16.60;99.90;;;;;;4946026;29;19915;-82
2022/04/12 11:57:22;;;;;;;;;;;16.80;99.90;;;;;;4955427;28;19922;-82
2022/04/12 11:59:51;;;;;;;;;;;17.00;99.90;;;;;;4949452;29;19958;-83
2022/04/12 12:02:18;;;;;;;;;;;17.30;99.90;;;;;;4957660;29;19928;-81
2022/04/12 12:04:47;;;;;;;;;;;17.50;99.90;;;;;;4952820;29;19950;-83
2022/04/12 12:07:14;;;;;;;;;;;17.30;99.90;;;;;;4978699;28;19924;-82
2022/04/12 12:09:50;;;;;;;;;;;17.10;99.90;;;;;;4971587;29;20329;-83
2022/04/12 12:12:17;;;;;;;;;;;17.20;99.90;;;;;;4954538;29;20294;-83
2022/04/12 12:14:42;;;;;;;;;;;17.30;99.90;;;;;;4947034;29;20319;-83
2022/04/12 12:17:09;;;;;;;;;;;17.20;99.90;;;;;;4943070;28;19921;-82
2022/04/12 12:19:39;;;;;;;;;;;17.20;99.90;;;;;;4952357;28;19915;-84
2022/04/12 12:22:07;;;;;;;;;;;17.00;99.90;;;;;;4955037;29;19973;-82
2022/04/12 12:24:37;;;;;;;;;;;17.10;99.90;;;;;;4953868;28;20005;-84
2022/04/12 12:27:04;;;;;;;;;;;17.30;99.90;;;;;;4957812;29;20087;-83
2022/04/12 12:29:34;;;;;;;;;;;17.10;99.90;;;;;;4959530;29;19903;-82
2022/04/12 12:32:02;;;;;;;;;;;17.10;99.90;;;;;;4948935;29;19966;-82
2022/04/12 12:34:32;;;;;;;;;;;17.10;99.90;;;;;;4966474;29;19911;-82
2022/04/12 12:37:05;;;;;;;;;;;17.20;99.90;;;;;;4961422;29;19915;-83
2022/04/12 12:39:35;;;;;;;;;;;16.80;99.90;;;;;;4968250;28;19978;-83
2022/04/12 12:42:02;;;;;;;;;;;16.60;99.90;;;;;;4971144;28;19933;-83
2022/04/12 12:44:32;;;;;;;;;;;16.50;99.90;;;;;;4961208;28;20061;-82
2022/04/12 12:46:59;;;;;;;;;;;16.60;99.90;;;;;;4925202;29;19960;-84
2022/04/12 12:49:33;;;;;;;;;;;16.60;99.90;;;;;;4959869;28;20332;-83
2022/04/12 12:52:01;;;;;;;;;;;16.60;99.90;;;;;;4960208;29;20301;-82
2022/04/12 12:54:28;;;;;;;;;;;16.60;99.90;;;;;;4942003;29;19914;-82
2022/04/12 12:56:53;;;;;;;;;;;16.70;99.90;;;;;;4950815;28;20396;-82
2022/04/12 12:59:27;;;;;;;;;;;16.50;99.90;;;;;;4958531;29;19934;-83
2022/04/12 13:01:53;;;;;;;;;;;16.30;99.90;;;;;;4959024;29;20001;-84
2022/04/12 13:04:26;;;;;;;;;;;16.20;99.90;;;;;;4953849;29;20339;-82
2022/04/12 13:07:18;;;;;;;;;;;16.10;99.90;;;;;;4965401;29;19914;-82
2022/04/12 13:09:45;;;;;;;;;;;16.00;99.90;;;;;;4949949;28;19914;-82
2022/04/12 13:12:11;;;;;;;;;;;16.10;99.90;;;;;;4941768;29;19999;-83
2022/04/12 13:14:37;;;;;;;;;;;16.10;99.90;;;;;;4937056;29;20432;-83
2022/04/12 13:17:03;;;;;;;;;;;16.20;99.90;;;;;;4931389;29;20401;-82
2022/04/12 13:19:29;;;;;;;;;;;16.10;99.90;;;;;;4955856;29;19922;-83
2022/04/12 13:21:55;;;;;;;;;;;16.10;99.90;;;;;;4952888;29;19921;-83
2022/04/12 13:24:22;;;;;;;;;;;16.10;99.90;;;;;;4946655;29;19923;-83
2022/04/12 13:26:48;;;;;;;;;;;16.20;99.90;;;;;;4950342;29;19914;-83
2022/04/12 13:29:14;;;;;;;;;;;16.20;99.90;;;;;;4939820;29;20035;-82
2022/04/12 13:31:40;;;;;;;;;;;16.10;99.90;;;;;;4950570;28;20031;-83
2022/04/12 13:34:06;;;;;;;;;;;16.00;99.90;;;;;;4963292;28;19949;-82
2022/04/12 13:36:31;;;;;;;;;;;15.90;99.90;;;;;;4961335;29;19910;-83
2022/04/12 13:38:57;;;;;;;;;;;15.80;99.90;;;;;;4949267;29;19922;-83
2022/04/12 13:41:23;;;;;;;;;;;15.60;99.90;;;;;;4941980;29;19956;-83
2022/04/12 13:43:49;;;;;;;;;;;15.60;99.90;;;;;;4955162;29;19926;-82
2022/04/12 13:46:14;;;;;;;;;;;15.50;99.90;;;;;;4945953;28;19946;-82
2022/04/12 13:48:41;;;;;;;;;;;15.60;99.90;;;;;;4957645;29;19914;-82
2022/04/12 13:51:08;;;;;;;;;;;15.70;99.90;;;;;;4960868;29;20179;-82
2022/04/12 13:53:37;;;;;;;;;;;15.50;99.90;;;;;;4958773;28;19915;-82
2022/04/12 13:56:02;;;;;;;;;;;15.40;99.90;;;;;;4964446;28;19997;-82
2022/04/12 13:58:28;;;;;;;;;;;15.20;99.90;;;;;;4953503;28;19961;-81
2022/04/12 14:00:54;;;;;;;;;;;15.30;99.90;;;;;;4954705;28;19921;-82
2022/04/12 14:03:19;;;;;;;;;;;15.10;99.90;;;;;;4949839;29;19942;-81
2022/04/12 14:05:46;;;;;;;;;;;15.00;99.90;;;;;;4958281;29;19933;-83
2022/04/12 14:08:12;;;;;;;;;;;15.10;99.90;;;;;;4947070;29;19921;-81
2022/04/12 14:10:39;;;;;;;;;;;15.10;99.90;;;;;;4950106;29;19913;-82
2022/04/12 14:13:08;;;;;;;;;;;15.00;99.90;;;;;;4944217;29;19953;-84
2022/04/12 14:15:33;;;;;;;;;;;15.00;99.90;;;;;;4939512;29;19934;-82
2022/04/12 14:17:59;;;;;;;;;;;15.10;99.90;;;;;;4956018;28;19930;-82
2022/04/12 14:20:26;;;;;;;;;;;15.00;99.90;;;;;;4933787;29;19915;-82